Aviation Digital Data Service (ADDS)

Output produced by TAFs form (1744 UTC 28 March 2015)
found at http://www.aviationweather.gov/adds/tafs/
 
KABE 281728Z 2818/2918 32015G22KT P6SM BKN060 
     FM290300 33012G25KT P6SM FEW030 SCT050 BKN100 
     FM290600 33010G18KT P6SM SCT100 
     FM290900 32010KT P6SM SKC